createdAt,value
2022-12-18T00:01:25.416Z,13.80
2022-12-18T00:06:19.246Z,14.53
2022-12-18T00:08:46.172Z,14.33
2022-12-18T00:11:17.490Z,14.50
2022-12-18T00:13:44.292Z,15.57
2022-12-18T00:16:12.450Z,15.43
2022-12-18T00:18:39.668Z,14.80
2022-12-18T00:21:07.805Z,15.57
2022-12-18T00:23:35.615Z,14.27
2022-12-18T00:26:03.463Z,15.30
2022-12-18T00:28:29.923Z,13.97
2022-12-18T00:31:06.930Z,14.07
2022-12-18T00:33:33.535Z,14.90
2022-12-18T00:36:03.337Z,14.20
2022-12-18T00:38:29.936Z,14.77
2022-12-18T00:40:56.719Z,15.17
2022-12-18T00:43:23.157Z,14.63
2022-12-18T00:45:50.171Z,13.97
2022-12-18T00:48:16.713Z,14.40
2022-12-18T00:50:43.122Z,14.23
2022-12-18T00:53:09.514Z,14.20
2022-12-18T00:55:35.989Z,13.33
2022-12-18T00:58:02.451Z,14.30
2022-12-18T01:00:29.102Z,13.90
2022-12-18T01:02:55.653Z,15.87
2022-12-18T01:05:22.107Z,15.30
2022-12-18T01:07:48.528Z,14.63
2022-12-18T01:10:15.093Z,14.70
2022-12-18T01:12:41.609Z,15.40
2022-12-18T01:15:08.689Z,15.57
2022-12-18T01:17:35.080Z,16.17
2022-12-18T01:20:01.666Z,14.23
2022-12-18T01:22:28.095Z,15.03
2022-12-18T01:24:54.515Z,14.60
2022-12-18T01:27:20.992Z,13.97
2022-12-18T01:29:47.429Z,14.73
2022-12-18T01:32:13.865Z,14.70
2022-12-18T01:34:40.550Z,14.50
2022-12-18T01:37:07.171Z,15.37
2022-12-18T01:39:33.846Z,14.73
2022-12-18T01:42:03.926Z,13.20
2022-12-18T01:44:49.195Z,13.87
2022-12-18T01:47:19.219Z,13.00
2022-12-18T01:49:45.692Z,13.97
2022-12-18T01:52:12.180Z,13.97
2022-12-18T01:54:38.787Z,14.90
2022-12-18T01:57:05.186Z,14.53
2022-12-18T01:59:32.805Z,14.13
2022-12-18T02:02:00.396Z,12.77
2022-12-18T02:04:27.886Z,15.10
2022-12-18T02:07:03.520Z,13.63
2022-12-18T02:09:32.783Z,15.13
2022-12-18T02:12:25.444Z,14.13
2022-12-18T02:14:59.813Z,14.90
2022-12-18T02:17:35.305Z,15.03
2022-12-18T02:20:07.894Z,14.00
2022-12-18T02:22:37.115Z,13.87
2022-12-18T02:25:12.563Z,14.37
2022-12-18T02:27:40.247Z,14.53
2022-12-18T02:30:08.064Z,15.13
2022-12-18T02:32:38.931Z,14.47
2022-12-18T02:35:06.592Z,14.20
2022-12-18T02:37:33.445Z,15.00
2022-12-18T02:40:00.033Z,14.13
2022-12-18T02:42:27.122Z,15.73
2022-12-18T02:44:56.638Z,15.87
2022-12-18T02:47:24.179Z,15.83
2022-12-18T02:50:16.675Z,15.87
2022-12-18T02:52:53.157Z,15.20
2022-12-18T02:55:22.561Z,14.40
2022-12-18T02:58:06.061Z,14.43
2022-12-18T03:00:38.461Z,13.50
2022-12-18T03:03:10.984Z,13.77
2022-12-18T03:05:47.071Z,14.20
2022-12-18T03:08:20.105Z,14.60
2022-12-18T03:10:50.580Z,14.23
2022-12-18T03:13:21.473Z,13.20
2022-12-18T03:15:52.633Z,14.05
2022-12-18T03:20:47.087Z,14.37
2022-12-18T03:23:16.626Z,15.50
2022-12-18T03:25:44.814Z,14.43
2022-12-18T03:28:13.863Z,14.40
2022-12-18T03:30:41.161Z,14.47
2022-12-18T03:33:13.019Z,15.77
2022-12-18T03:35:41.092Z,15.47
2022-12-18T03:38:07.924Z,15.57
2022-12-18T03:40:46.674Z,16.17
2022-12-18T03:43:21.595Z,14.60
2022-12-18T03:45:55.457Z,14.17
2022-12-18T03:48:27.902Z,14.40
2022-12-18T03:50:58.994Z,13.70
2022-12-18T03:53:25.693Z,14.63
2022-12-18T03:55:52.801Z,13.17
2022-12-18T03:58:21.217Z,14.00
2022-12-18T04:00:48.885Z,13.63
2022-12-18T04:03:15.838Z,13.93
2022-12-18T04:05:43.213Z,13.53
2022-12-18T04:08:10.089Z,14.00
2022-12-18T04:10:36.913Z,13.53
2022-12-18T04:13:03.559Z,12.97
2022-12-18T04:15:30.160Z,13.10
2022-12-18T04:17:56.616Z,13.67
2022-12-18T04:20:23.066Z,14.00
2022-12-18T04:22:49.490Z,13.30
2022-12-18T04:25:15.935Z,13.27
2022-12-18T04:27:42.360Z,13.03
2022-12-18T04:30:09.257Z,13.50
2022-12-18T04:32:35.970Z,13.27
2022-12-18T04:35:03.042Z,12.77
2022-12-18T04:37:29.459Z,13.27
2022-12-18T04:39:55.845Z,13.40
2022-12-18T04:42:22.245Z,13.50
2022-12-18T04:44:48.677Z,13.70
2022-12-18T04:47:15.103Z,12.93
2022-12-18T04:49:41.592Z,13.87
2022-12-18T04:52:08.167Z,12.90
2022-12-18T04:54:34.550Z,11.80
2022-12-18T04:57:00.948Z,13.17
2022-12-18T04:59:27.340Z,13.40
2022-12-18T05:01:54.274Z,13.90
2022-12-18T05:04:20.823Z,12.07
2022-12-18T05:06:47.311Z,13.00
2022-12-18T05:09:14.679Z,13.37
2022-12-18T05:11:41.153Z,13.50
2022-12-18T05:14:07.587Z,13.23
2022-12-18T05:16:34.044Z,13.97
2022-12-18T05:19:00.484Z,12.53
2022-12-18T05:21:26.981Z,13.43
2022-12-18T05:23:53.393Z,13.77
2022-12-18T05:26:19.925Z,13.10
2022-12-18T05:28:46.878Z,14.37
2022-12-18T05:31:13.907Z,14.37
2022-12-18T05:33:40.676Z,14.07
2022-12-18T05:36:08.529Z,14.10
2022-12-18T05:38:36.392Z,13.60
2022-12-18T05:41:03.261Z,14.87
2022-12-18T05:43:29.800Z,15.27
2022-12-18T05:45:56.745Z,14.90
2022-12-18T05:48:23.243Z,15.00
2022-12-18T05:50:50.645Z,14.77
2022-12-18T05:53:18.222Z,15.33
2022-12-18T05:55:45.002Z,13.97
2022-12-18T05:58:12.420Z,14.17
2022-12-18T06:00:42.849Z,14.67
2022-12-18T06:03:10.941Z,14.50
2022-12-18T06:05:38.384Z,15.97
2022-12-18T06:08:05.400Z,14.80
2022-12-18T06:10:32.041Z,15.07
2022-12-18T06:12:58.464Z,16.03
2022-12-18T06:15:25.445Z,15.20
2022-12-18T06:17:51.897Z,14.80
2022-12-18T06:20:18.456Z,16.57
2022-12-18T06:22:44.896Z,15.77
2022-12-18T06:25:11.303Z,16.73
2022-12-18T06:27:38.240Z,16.03
2022-12-18T06:30:05.161Z,16.67
2022-12-18T06:32:31.763Z,16.60
2022-12-18T06:34:58.409Z,16.47
2022-12-18T06:37:27.549Z,17.17
2022-12-18T06:39:54.377Z,18.23
2022-12-18T06:42:20.784Z,21.53
2022-12-18T06:44:47.255Z,19.30
2022-12-18T06:47:13.732Z,19.47
2022-12-18T06:49:40.194Z,20.77
2022-12-18T06:52:06.593Z,18.43
2022-12-18T06:54:33.014Z,20.87
2022-12-18T06:56:59.389Z,36.87
2022-12-18T06:59:25.864Z,22.60
2022-12-18T07:01:53.103Z,18.67
2022-12-18T07:04:19.667Z,19.50
2022-12-18T07:06:46.064Z,18.90
2022-12-18T07:09:12.449Z,18.77
2022-12-18T07:11:38.840Z,18.10
2022-12-18T07:14:05.301Z,16.80
2022-12-18T07:16:31.873Z,16.60
2022-12-18T07:18:58.313Z,17.80
2022-12-18T07:21:26.098Z,18.50
2022-12-18T07:23:52.692Z,17.13
2022-12-18T07:26:20.581Z,17.63
2022-12-18T07:28:47.492Z,18.30
2022-12-18T07:31:16.523Z,17.47
2022-12-18T07:33:43.401Z,18.70
2022-12-18T07:36:10.765Z,27.03
2022-12-18T07:38:37.520Z,20.47
2022-12-18T07:41:08.507Z,17.87
2022-12-18T07:43:35.401Z,17.98
2022-12-18T07:46:01.915Z,18.33
2022-12-18T07:48:29.117Z,17.53
2022-12-18T07:50:58.957Z,16.83
2022-12-18T07:53:25.515Z,18.63
2022-12-18T07:56:25.339Z,18.07
2022-12-18T07:58:42.588Z,17.88
2022-12-18T08:01:10.572Z,16.97
2022-12-18T08:03:39.180Z,16.80
2022-12-18T08:06:07.541Z,16.20
2022-12-18T08:08:34.455Z,17.07
2022-12-18T08:11:00.917Z,15.67
2022-12-18T08:13:28.002Z,15.50
2022-12-18T08:15:58.220Z,17.13
2022-12-18T08:18:25.172Z,17.03
2022-12-18T08:20:51.747Z,15.93
2022-12-18T08:23:18.205Z,16.90
2022-12-18T08:25:44.982Z,17.77
2022-12-18T08:28:11.523Z,18.37
2022-12-18T08:30:37.992Z,15.77
2022-12-18T08:33:04.533Z,16.43
2022-12-18T08:35:36.338Z,16.27
2022-12-18T08:38:04.627Z,16.27
2022-12-18T08:40:31.061Z,14.27
2022-12-18T08:43:16.194Z,15.10
2022-12-18T08:45:42.779Z,14.63
2022-12-18T08:48:09.273Z,16.07
2022-12-18T08:50:35.658Z,14.90
2022-12-18T08:53:02.032Z,15.37
2022-12-18T08:55:28.561Z,14.97
2022-12-18T08:57:54.976Z,14.50
2022-12-18T09:00:21.591Z,14.23
2022-12-18T09:02:48.177Z,13.50
2022-12-18T09:05:15.821Z,13.60
2022-12-18T09:07:42.332Z,12.67
2022-12-18T09:10:08.815Z,14.17
2022-12-18T09:12:35.210Z,14.30
2022-12-18T09:15:01.728Z,14.03
2022-12-18T09:17:28.145Z,13.77
2022-12-18T09:19:54.526Z,14.77
2022-12-18T09:22:20.900Z,13.77
2022-12-18T09:24:47.380Z,13.63
2022-12-18T09:27:13.796Z,13.70
2022-12-18T09:29:40.669Z,14.20
2022-12-18T09:32:07.132Z,13.63
2022-12-18T09:34:33.905Z,15.00
2022-12-18T09:37:00.342Z,14.03
2022-12-18T09:39:26.788Z,14.53
2022-12-18T09:41:54.704Z,14.60
2022-12-18T09:44:45.102Z,14.83
2022-12-18T09:47:17.812Z,14.77
2022-12-18T09:49:46.118Z,13.90
2022-12-18T09:52:15.495Z,14.50
2022-12-18T09:54:45.178Z,14.90
2022-12-18T09:57:15.700Z,14.63
2022-12-18T09:59:43.527Z,14.00
2022-12-18T10:02:17.619Z,14.17
2022-12-18T10:04:44.974Z,15.93
2022-12-18T10:07:24.792Z,16.67
2022-12-18T10:10:20.664Z,15.97
2022-12-18T10:12:47.087Z,14.03
2022-12-18T10:15:28.775Z,14.33
2022-12-18T10:17:58.886Z,14.30
2022-12-18T10:20:28.417Z,14.30
2022-12-18T10:23:13.507Z,15.00
2022-12-18T10:25:47.161Z,14.30
2022-12-18T10:28:15.468Z,13.27
2022-12-18T10:30:43.173Z,13.33
2022-12-18T10:33:29.724Z,13.00
2022-12-18T10:35:56.352Z,13.93
2022-12-18T10:38:24.520Z,12.90
2022-12-18T10:40:58.184Z,13.27
2022-12-18T10:43:26.276Z,12.23
2022-12-18T10:45:58.893Z,12.63
2022-12-18T10:48:25.557Z,12.37
2022-12-18T10:53:40.571Z,12.90
2022-12-18T10:56:07.617Z,12.97
2022-12-18T10:58:35.671Z,11.87
2022-12-18T11:01:02.105Z,12.20
2022-12-18T11:03:33.276Z,12.23
2022-12-18T11:08:26.057Z,12.83
2022-12-18T11:10:52.532Z,13.53
2022-12-18T11:13:20.546Z,13.67
2022-12-18T11:15:47.647Z,12.27
2022-12-18T11:18:24.374Z,13.97
2022-12-18T11:20:58.751Z,14.03
2022-12-18T11:23:25.969Z,12.57
2022-12-18T11:25:53.419Z,11.93
2022-12-18T11:28:28.710Z,12.87
2022-12-18T11:31:18.683Z,11.83
2022-12-18T11:34:26.830Z,12.90
2022-12-18T11:36:45.466Z,11.23
2022-12-18T11:39:17.668Z,12.37
2022-12-18T11:42:05.803Z,12.40
2022-12-18T11:44:39.172Z,12.43
2022-12-18T11:47:20.433Z,12.73
2022-12-18T11:49:50.092Z,13.27
2022-12-18T11:52:16.491Z,13.23
2022-12-18T11:54:42.972Z,12.63
2022-12-18T11:57:21.134Z,13.07
2022-12-18T11:59:59.584Z,12.50
2022-12-18T12:02:26.082Z,13.33
2022-12-18T12:04:55.711Z,12.93
2022-12-18T12:07:22.146Z,14.00
2022-12-18T12:09:51.641Z,12.60
2022-12-18T12:12:48.701Z,14.17
2022-12-18T12:15:18.888Z,12.90
2022-12-18T12:18:09.601Z,12.47
2022-12-18T12:20:49.973Z,12.87
2022-12-18T12:23:26.155Z,12.70
2022-12-18T12:26:00.441Z,13.80
2022-12-18T12:28:32.612Z,13.30
2022-12-18T12:31:07.645Z,13.17
2022-12-18T12:33:34.707Z,13.40
2022-12-18T12:36:01.138Z,13.07
2022-12-18T12:38:32.063Z,11.80
2022-12-18T12:41:06.256Z,13.27
2022-12-18T12:43:36.719Z,13.43
2022-12-18T12:46:13.695Z,12.80
2022-12-18T12:49:00.133Z,13.67
2022-12-18T12:51:29.095Z,13.47
2022-12-18T12:53:57.102Z,13.17
2022-12-18T12:56:25.534Z,14.93
2022-12-18T12:59:10.405Z,12.70
2022-12-18T13:01:43.011Z,13.27
2022-12-18T13:04:28.198Z,11.93
2022-12-18T13:06:54.603Z,13.10
2022-12-18T13:09:21.141Z,12.47
2022-12-18T13:12:06.913Z,12.47
2022-12-18T13:14:33.374Z,12.23
2022-12-18T13:17:15.770Z,13.43
2022-12-18T13:19:42.255Z,13.67
2022-12-18T13:22:22.405Z,14.20
2022-12-18T13:24:48.934Z,13.63
2022-12-18T13:27:35.005Z,12.97
2022-12-18T13:30:01.841Z,13.07
2022-12-18T13:32:30.372Z,12.87
2022-12-18T13:35:15.787Z,12.87
2022-12-18T13:37:43.890Z,12.97
2022-12-18T13:40:37.077Z,13.63
2022-12-18T13:43:14.638Z,12.43
2022-12-18T13:45:41.152Z,11.67
2022-12-18T13:48:15.692Z,11.07
2022-12-18T13:50:43.028Z,12.00
2022-12-18T13:53:19.128Z,12.80
2022-12-18T13:55:46.266Z,11.57
2022-12-18T13:58:12.912Z,12.10
2022-12-18T14:00:42.940Z,11.83
2022-12-18T14:03:22.493Z,11.75
2022-12-18T14:05:57.054Z,11.17
2022-12-18T14:08:24.244Z,12.70
2022-12-18T14:10:51.954Z,12.00
2022-12-18T14:13:22.526Z,12.30
2022-12-18T14:15:49.869Z,12.23
2022-12-18T14:18:22.498Z,11.87
2022-12-18T14:20:52.942Z,12.30
2022-12-18T14:23:33.765Z,12.95
2022-12-18T14:26:05.366Z,13.07
2022-12-18T14:28:32.410Z,13.83
2022-12-18T14:30:58.903Z,14.77
2022-12-18T14:33:26.505Z,13.30
2022-12-18T14:35:55.738Z,15.20
2022-12-18T14:38:26.093Z,13.27
2022-12-18T14:40:56.774Z,13.93
2022-12-18T14:43:23.701Z,11.70
2022-12-18T14:45:50.840Z,15.83
2022-12-18T14:48:23.542Z,15.20
2022-12-18T14:51:02.265Z,15.13
2022-12-18T14:53:36.541Z,15.13
2022-12-18T14:56:04.563Z,16.50
2022-12-18T14:58:31.260Z,15.73
2022-12-18T15:00:58.162Z,15.57
2022-12-18T15:03:24.706Z,15.20
2022-12-18T15:05:52.645Z,15.00
2022-12-18T15:08:35.089Z,15.63
2022-12-18T15:11:01.509Z,14.27
2022-12-18T15:13:28.442Z,14.87
2022-12-18T15:15:56.260Z,14.73
2022-12-18T15:18:27.265Z,15.90
2022-12-18T15:20:58.603Z,15.82
2022-12-18T15:23:27.098Z,16.07
2022-12-18T15:25:58.431Z,15.97
2022-12-18T15:28:24.924Z,14.17
2022-12-18T15:31:06.676Z,12.60
2022-12-18T15:33:37.898Z,10.73
2022-12-18T15:38:31.099Z,13.17
2022-12-18T15:40:57.725Z,13.10
2022-12-18T15:43:37.757Z,12.83
2022-12-18T15:46:05.793Z,12.83
2022-12-18T15:48:33.464Z,13.13
2022-12-18T15:51:00.294Z,15.87
2022-12-18T15:53:29.328Z,16.37
2022-12-18T15:56:14.275Z,16.00
2022-12-18T15:58:40.924Z,15.10
2022-12-18T16:01:08.610Z,15.80
2022-12-18T16:03:35.171Z,14.70
2022-12-18T16:06:03.052Z,15.90
2022-12-18T16:08:30.972Z,15.40
2022-12-18T16:10:58.006Z,14.13
2022-12-18T16:13:24.805Z,15.27
2022-12-18T16:15:51.328Z,15.10
2022-12-18T16:18:17.936Z,16.77
2022-12-18T16:20:44.483Z,13.77
2022-12-18T16:23:10.938Z,14.40
2022-12-18T16:25:37.322Z,16.53
2022-12-18T16:28:03.915Z,18.87
2022-12-18T16:30:33.838Z,15.37
2022-12-18T16:33:04.987Z,16.57
2022-12-18T16:35:31.501Z,14.13
2022-12-18T16:37:57.924Z,15.03
2022-12-18T16:40:24.412Z,15.57
2022-12-18T16:42:50.829Z,15.37
2022-12-18T16:45:18.380Z,16.87
2022-12-18T16:47:45.167Z,15.03
2022-12-18T16:50:12.021Z,17.53
2022-12-18T16:52:38.637Z,18.27
2022-12-18T16:55:05.473Z,18.83
2022-12-18T16:57:31.933Z,17.67
2022-12-18T17:00:04.377Z,16.30
2022-12-18T17:02:32.922Z,14.87
2022-12-18T17:04:59.696Z,15.50
2022-12-18T17:07:26.855Z,16.57
2022-12-18T17:09:54.187Z,15.30
2022-12-18T17:12:21.131Z,14.23
2022-12-18T17:14:47.587Z,13.97
2022-12-18T17:17:23.148Z,13.30
2022-12-18T17:19:50.644Z,14.00
2022-12-18T17:22:17.277Z,13.77
2022-12-18T17:24:43.744Z,15.13
2022-12-18T17:27:10.167Z,15.50
2022-12-18T17:29:36.671Z,14.90
2022-12-18T17:32:03.253Z,15.50
2022-12-18T17:34:29.771Z,15.63
2022-12-18T17:36:57.160Z,15.70
2022-12-18T17:39:23.647Z,14.13
2022-12-18T17:41:50.225Z,14.93
2022-12-18T17:44:17.175Z,13.80
2022-12-18T17:46:44.184Z,15.97
2022-12-18T17:49:10.801Z,22.17
2022-12-18T17:51:37.420Z,23.73
2022-12-18T17:54:05.342Z,22.07
2022-12-18T17:56:31.999Z,23.23
2022-12-18T17:58:58.807Z,21.10
2022-12-18T18:01:25.632Z,16.27
2022-12-18T18:03:53.841Z,12.93
2022-12-18T18:06:20.691Z,13.80
2022-12-18T18:08:47.189Z,13.57
2022-12-18T18:11:33.824Z,15.20
2022-12-18T18:14:00.734Z,14.63
2022-12-18T18:16:35.228Z,14.13
2022-12-18T18:19:02.332Z,14.30
2022-12-18T18:21:29.121Z,14.57
2022-12-18T18:23:55.851Z,14.53
2022-12-18T18:26:22.471Z,14.90
2022-12-18T18:28:53.904Z,14.80
2022-12-18T18:31:20.972Z,15.00
2022-12-18T18:33:47.777Z,14.83
2022-12-18T18:36:14.602Z,14.40
2022-12-18T18:38:45.395Z,13.53
2022-12-18T18:41:14.913Z,14.53
2022-12-18T18:43:41.686Z,14.13
2022-12-18T18:46:11.248Z,13.50
2022-12-18T18:48:37.820Z,12.00
2022-12-18T18:51:07.382Z,14.83
2022-12-18T18:53:37.632Z,13.53
2022-12-18T18:56:45.396Z,14.00
2022-12-18T18:58:51.898Z,12.40
2022-12-18T19:01:19.470Z,11.23
2022-12-18T19:03:46.574Z,17.23
2022-12-18T19:06:16.055Z,17.73
2022-12-18T19:08:44.088Z,15.57
2022-12-18T19:11:33.151Z,15.10
2022-12-18T19:14:04.516Z,14.53
2022-12-18T19:16:31.460Z,13.77
2022-12-18T19:19:01.819Z,14.33
2022-12-18T19:21:28.937Z,10.57
2022-12-18T19:23:58.049Z,9.27
2022-12-18T19:26:27.802Z,9.97
2022-12-18T19:28:54.676Z,8.50
2022-12-18T19:31:27.085Z,7.93
2022-12-18T19:33:56.496Z,7.10
2022-12-18T19:36:25.140Z,7.00
2022-12-18T19:38:52.270Z,10.67
2022-12-18T19:41:19.460Z,12.00
2022-12-18T19:43:46.583Z,12.83
2022-12-18T19:46:14.666Z,12.87
2022-12-18T19:48:41.686Z,12.47
2022-12-18T19:51:09.356Z,13.00
2022-12-18T19:53:36.007Z,15.17
2022-12-18T19:56:09.544Z,15.23
2022-12-18T19:58:36.043Z,15.40
2022-12-18T20:01:02.656Z,17.80
2022-12-18T20:03:32.885Z,24.70
2022-12-18T20:06:10.531Z,13.87
2022-12-18T20:08:37.584Z,14.33
2022-12-18T20:11:04.391Z,17.10
2022-12-18T20:13:31.154Z,13.20
2022-12-18T20:15:57.668Z,12.57
2022-12-18T20:18:24.153Z,11.00
2022-12-18T20:20:51.297Z,11.07
2022-12-18T20:23:18.685Z,11.47
2022-12-18T20:25:45.328Z,10.57
2022-12-18T20:28:11.937Z,12.03
2022-12-18T20:30:38.455Z,10.30
2022-12-18T20:33:04.882Z,10.37
2022-12-18T20:35:34.572Z,10.03
2022-12-18T20:38:01.218Z,10.40
2022-12-18T20:40:28.503Z,10.60
2022-12-18T20:42:54.946Z,11.73
2022-12-18T20:45:21.441Z,10.17
2022-12-18T20:47:47.863Z,10.23
2022-12-18T20:50:14.300Z,11.30
2022-12-18T20:52:40.807Z,10.77
2022-12-18T20:55:07.386Z,10.40
2022-12-18T20:57:34.373Z,9.83
2022-12-18T21:00:03.426Z,9.40
2022-12-18T21:02:32.114Z,8.57
2022-12-18T21:04:58.593Z,7.70
2022-12-18T21:07:27.400Z,6.90
2022-12-18T21:09:54.098Z,6.43
2022-12-18T21:12:42.585Z,5.70
2022-12-18T21:15:11.953Z,5.07
2022-12-18T21:17:44.477Z,5.87
2022-12-18T21:20:11.894Z,5.13
2022-12-18T21:22:44.305Z,4.40
2022-12-18T21:25:10.787Z,5.27
2022-12-18T21:27:37.320Z,4.77
2022-12-18T21:30:04.028Z,4.97
2022-12-18T21:32:32.251Z,9.77
2022-12-18T21:35:00.198Z,7.40
2022-12-18T21:37:26.720Z,17.47
2022-12-18T21:39:53.161Z,6.13
2022-12-18T21:42:38.267Z,5.60
2022-12-18T21:45:04.970Z,5.27
2022-12-18T21:47:31.373Z,4.73
2022-12-18T21:49:57.793Z,4.40
2022-12-18T21:52:31.249Z,5.20
2022-12-18T21:55:06.151Z,4.00
2022-12-18T21:57:33.011Z,4.37
2022-12-18T21:59:59.914Z,4.10
2022-12-18T22:02:26.683Z,4.17
2022-12-18T22:04:53.241Z,5.33
2022-12-18T22:07:20.463Z,5.90
2022-12-18T22:09:49.291Z,5.63
2022-12-18T22:12:35.189Z,4.77
2022-12-18T22:15:02.586Z,3.70
2022-12-18T22:17:29.007Z,3.83
2022-12-18T22:19:55.766Z,3.87
2022-12-18T22:22:22.606Z,3.67
2022-12-18T22:24:49.089Z,3.67
2022-12-18T22:27:15.525Z,3.60
2022-12-18T22:30:00.611Z,3.53
2022-12-18T22:32:30.656Z,4.00
2022-12-18T22:35:03.106Z,3.85
2022-12-18T22:37:32.672Z,3.30
2022-12-18T22:39:59.079Z,3.60
2022-12-18T22:42:29.208Z,3.90
2022-12-18T22:44:55.652Z,3.83
2022-12-18T22:47:26.508Z,3.70
2022-12-18T22:49:55.849Z,4.00
2022-12-18T22:52:23.439Z,5.13
2022-12-18T22:54:53.169Z,4.87
2022-12-18T22:57:20.031Z,4.53
2022-12-18T22:59:46.477Z,3.40
2022-12-18T23:02:13.053Z,4.63
2022-12-18T23:04:39.788Z,4.03
2022-12-18T23:07:06.765Z,14.87
2022-12-18T23:09:33.588Z,12.90
2022-12-18T23:12:00.599Z,7.53
2022-12-18T23:14:27.951Z,5.03
2022-12-18T23:16:54.378Z,5.10
2022-12-18T23:19:21.142Z,4.90
2022-12-18T23:21:50.187Z,4.53
2022-12-18T23:24:16.593Z,3.83
2022-12-18T23:26:43.233Z,3.83
2022-12-18T23:29:09.880Z,4.33
2022-12-18T23:31:37.398Z,3.67
2022-12-18T23:34:05.173Z,3.70
2022-12-18T23:36:31.892Z,3.90
2022-12-18T23:39:07.352Z,4.30
2022-12-18T23:41:33.806Z,4.50
2022-12-18T23:44:00.670Z,3.93
2022-12-18T23:46:28.911Z,4.47
2022-12-18T23:48:57.213Z,4.00
2022-12-18T23:51:25.543Z,3.97
2022-12-18T23:53:52.433Z,4.00
2022-12-18T23:56:18.942Z,4.17
2022-12-18T23:58:45.478Z,4.03
